createdAt,value
2023-01-31T00:00:31.390Z,23.25
2023-01-31T00:02:57.676Z,22.00
2023-01-31T00:05:23.968Z,22.76
2023-01-31T00:07:50.272Z,24.73
2023-01-31T00:10:16.570Z,24.08
2023-01-31T00:12:42.868Z,20.48
2023-01-31T00:15:09.171Z,16.94
2023-01-31T00:17:36.006Z,14.18
2023-01-31T00:20:02.330Z,13.14
2023-01-31T00:22:28.644Z,12.89
2023-01-31T00:24:54.933Z,12.98
2023-01-31T00:27:21.280Z,13.13
2023-01-31T00:29:47.581Z,13.00
2023-01-31T00:32:13.943Z,13.39
2023-01-31T00:34:40.327Z,13.54
2023-01-31T00:37:06.631Z,13.96
2023-01-31T00:39:32.928Z,14.11
2023-01-31T00:41:59.233Z,13.81
2023-01-31T00:44:25.551Z,13.38
2023-01-31T00:46:51.902Z,14.06
2023-01-31T00:49:18.224Z,15.24
2023-01-31T00:51:44.556Z,16.72
2023-01-31T00:54:10.851Z,16.65
2023-01-31T00:56:37.291Z,15.89
2023-01-31T00:59:04.186Z,16.00
2023-01-31T01:01:30.563Z,15.85
2023-01-31T01:03:56.879Z,15.34
2023-01-31T01:06:23.199Z,14.98
2023-01-31T01:08:49.515Z,14.00
2023-01-31T01:11:15.817Z,13.92
2023-01-31T01:13:42.120Z,14.04
2023-01-31T01:16:08.436Z,14.07
2023-01-31T01:18:34.860Z,14.99
2023-01-31T01:21:01.182Z,15.84
2023-01-31T01:23:27.468Z,16.63
2023-01-31T01:25:53.753Z,17.82
2023-01-31T01:28:20.059Z,17.63
2023-01-31T01:30:46.351Z,16.30
2023-01-31T01:33:12.651Z,15.15
2023-01-31T01:35:38.964Z,14.60
2023-01-31T01:38:05.284Z,14.19
2023-01-31T01:40:31.570Z,14.19
2023-01-31T01:42:57.886Z,14.70
2023-01-31T01:45:24.317Z,15.06
2023-01-31T01:47:50.764Z,14.34
2023-01-31T01:50:17.098Z,13.75
2023-01-31T01:52:43.390Z,13.62
2023-01-31T01:55:09.681Z,13.62
2023-01-31T01:57:36.323Z,12.99
2023-01-31T02:00:02.672Z,12.56
2023-01-31T02:02:28.946Z,12.40
2023-01-31T02:04:55.301Z,12.66
2023-01-31T02:07:21.587Z,12.51
2023-01-31T02:09:47.881Z,12.22
2023-01-31T02:15:03.220Z,12.70
2023-01-31T02:17:29.562Z,11.77
2023-01-31T02:19:55.845Z,11.95
2023-01-31T02:22:22.134Z,16.72
2023-01-31T02:24:48.441Z,19.38
2023-01-31T02:27:14.739Z,14.48
2023-01-31T02:29:41.025Z,12.30
2023-01-31T02:32:08.825Z,11.57
2023-01-31T02:34:36.912Z,10.64
2023-01-31T02:37:03.192Z,10.68
2023-01-31T02:39:29.488Z,10.45
2023-01-31T02:41:55.768Z,10.07
2023-01-31T02:44:22.432Z,9.52
2023-01-31T02:46:48.759Z,9.08
2023-01-31T02:49:15.044Z,8.74
2023-01-31T02:51:41.347Z,8.29
2023-01-31T02:54:07.664Z,7.94
2023-01-31T02:56:33.948Z,7.50
2023-01-31T02:59:00.229Z,7.78
2023-01-31T03:01:26.542Z,7.49
2023-01-31T03:03:52.813Z,7.51
2023-01-31T03:06:19.093Z,7.12
2023-01-31T03:08:45.422Z,6.99
2023-01-31T03:11:11.707Z,6.81
2023-01-31T03:13:38.038Z,7.02
2023-01-31T03:16:04.336Z,6.41
2023-01-31T03:18:30.628Z,6.76
2023-01-31T03:20:56.914Z,6.41
2023-01-31T03:23:23.205Z,6.10
2023-01-31T03:25:49.499Z,5.96
2023-01-31T03:28:16.362Z,5.24
2023-01-31T03:30:42.779Z,4.64
2023-01-31T03:33:09.083Z,4.56
2023-01-31T03:35:38.811Z,5.51
2023-01-31T03:38:05.155Z,6.21
2023-01-31T03:40:31.428Z,6.87
2023-01-31T03:42:57.756Z,7.46
2023-01-31T03:45:24.058Z,8.34
2023-01-31T03:47:50.330Z,8.75
2023-01-31T03:50:16.624Z,8.90
2023-01-31T03:52:42.939Z,7.89
2023-01-31T03:55:09.227Z,7.95
2023-01-31T03:57:35.998Z,7.84
2023-01-31T04:00:02.381Z,8.09
2023-01-31T04:02:28.678Z,7.34
2023-01-31T04:04:54.998Z,7.48
2023-01-31T04:07:21.304Z,7.48
2023-01-31T04:09:47.582Z,7.62
2023-01-31T04:12:14.116Z,7.34
2023-01-31T04:14:40.484Z,8.25
2023-01-31T04:17:06.775Z,8.52
2023-01-31T04:19:33.275Z,9.11
2023-01-31T04:21:59.585Z,9.15
2023-01-31T04:24:25.869Z,8.68
2023-01-31T04:26:52.179Z,9.57
2023-01-31T04:29:18.517Z,9.63
2023-01-31T04:31:44.866Z,9.60
2023-01-31T04:34:11.727Z,9.33
2023-01-31T04:36:38.048Z,8.62
2023-01-31T04:39:04.327Z,8.29
2023-01-31T04:41:30.613Z,7.42
2023-01-31T04:43:56.900Z,6.48
2023-01-31T04:46:23.208Z,5.71
2023-01-31T04:48:49.510Z,5.18
2023-01-31T04:51:15.809Z,5.11
2023-01-31T04:53:42.087Z,5.39
2023-01-31T04:56:08.386Z,5.61
2023-01-31T04:58:34.711Z,6.26
2023-01-31T05:01:01.020Z,6.33
2023-01-31T05:03:27.329Z,6.36
2023-01-31T05:05:53.626Z,5.86
2023-01-31T05:08:22.740Z,5.69
2023-01-31T05:10:49.026Z,5.61
2023-01-31T05:13:15.320Z,5.70
2023-01-31T05:15:41.599Z,5.25
2023-01-31T05:18:07.871Z,5.06
2023-01-31T05:20:34.209Z,4.59
2023-01-31T05:23:00.491Z,4.47
2023-01-31T05:25:26.764Z,4.09
2023-01-31T05:27:53.053Z,6.60
2023-01-31T05:30:19.447Z,6.26
2023-01-31T05:32:45.821Z,5.15
2023-01-31T05:35:12.117Z,4.69
2023-01-31T05:37:38.408Z,4.82
2023-01-31T05:40:04.699Z,5.48
2023-01-31T05:42:31.199Z,5.45
2023-01-31T05:44:57.496Z,4.76
2023-01-31T05:47:23.777Z,4.92
2023-01-31T05:49:50.072Z,4.67
2023-01-31T05:52:16.349Z,3.86
2023-01-31T05:54:42.638Z,3.90
2023-01-31T05:57:09.055Z,3.74
2023-01-31T05:59:35.344Z,4.04
2023-01-31T06:02:02.251Z,3.83
2023-01-31T06:04:28.696Z,4.44
2023-01-31T06:06:55.061Z,4.25
2023-01-31T06:09:21.335Z,4.03
2023-01-31T06:11:47.642Z,4.13
2023-01-31T06:14:13.948Z,4.26
2023-01-31T06:16:40.232Z,4.32
2023-01-31T06:19:06.548Z,4.86
2023-01-31T06:21:33.044Z,5.46
2023-01-31T06:23:59.727Z,5.61
2023-01-31T06:26:26.140Z,5.70
2023-01-31T06:28:52.452Z,6.31
2023-01-31T06:31:18.835Z,5.95
2023-01-31T06:33:47.813Z,5.83
2023-01-31T06:36:16.014Z,6.23
2023-01-31T06:38:46.434Z,6.89
2023-01-31T06:41:12.736Z,5.96
2023-01-31T06:43:39.019Z,5.92
2023-01-31T06:46:05.492Z,3.92
2023-01-31T06:48:31.880Z,3.47
2023-01-31T06:50:58.175Z,3.87
2023-01-31T06:53:24.460Z,4.62
2023-01-31T06:55:50.764Z,4.11
2023-01-31T06:58:19.036Z,3.93
2023-01-31T07:00:46.703Z,3.63
2023-01-31T07:03:13.010Z,3.88
2023-01-31T07:05:39.297Z,4.22
2023-01-31T07:08:05.585Z,4.15
2023-01-31T07:10:32.489Z,3.79
2023-01-31T07:12:58.839Z,3.59
2023-01-31T07:15:25.135Z,3.56
2023-01-31T07:17:51.558Z,3.33
2023-01-31T07:20:17.828Z,3.55
2023-01-31T07:22:44.127Z,3.63
2023-01-31T07:25:10.422Z,3.37
2023-01-31T07:27:36.780Z,3.70
2023-01-31T07:30:03.066Z,3.81
2023-01-31T07:32:29.992Z,4.42
2023-01-31T07:34:56.353Z,4.26
2023-01-31T07:37:22.626Z,3.41
2023-01-31T07:39:49.447Z,3.89
2023-01-31T07:42:15.738Z,3.67
2023-01-31T07:44:42.020Z,4.07
2023-01-31T07:47:08.459Z,3.38
2023-01-31T07:49:34.748Z,2.91
2023-01-31T07:52:01.030Z,3.28
2023-01-31T07:54:27.345Z,4.31
2023-01-31T07:56:53.627Z,4.64
2023-01-31T07:59:19.911Z,5.47
2023-01-31T08:01:48.288Z,7.45
2023-01-31T08:04:21.471Z,9.10
2023-01-31T08:06:48.200Z,7.82
2023-01-31T08:09:14.657Z,6.86
2023-01-31T08:11:41.028Z,6.31
2023-01-31T08:14:07.332Z,6.54
2023-01-31T08:16:33.605Z,5.53
2023-01-31T08:18:59.885Z,6.22
2023-01-31T08:21:26.168Z,8.05
2023-01-31T08:23:52.453Z,6.78
2023-01-31T08:26:18.748Z,4.85
2023-01-31T08:28:45.062Z,5.69
2023-01-31T08:31:11.414Z,7.26
2023-01-31T08:33:37.746Z,7.13
2023-01-31T08:36:04.100Z,7.43
2023-01-31T08:38:30.464Z,7.34
2023-01-31T08:40:56.775Z,7.77
2023-01-31T08:43:23.086Z,7.78
2023-01-31T08:45:49.384Z,8.53
2023-01-31T08:48:15.677Z,8.05
2023-01-31T08:50:42.014Z,8.58
2023-01-31T08:53:08.313Z,8.72
2023-01-31T08:55:34.615Z,9.51
2023-01-31T08:58:00.926Z,9.75
2023-01-31T09:00:27.250Z,9.75
2023-01-31T09:02:53.641Z,9.60
2023-01-31T09:05:20.277Z,9.92
2023-01-31T09:07:46.720Z,9.16
2023-01-31T09:10:13.006Z,9.48
2023-01-31T09:12:39.494Z,9.44
2023-01-31T09:15:05.781Z,9.40
2023-01-31T09:17:32.268Z,9.18
2023-01-31T09:19:58.591Z,9.51
2023-01-31T09:22:24.908Z,9.66
2023-01-31T09:24:51.259Z,9.69
2023-01-31T09:27:17.573Z,9.83
2023-01-31T09:29:43.853Z,9.60
2023-01-31T09:32:10.140Z,10.18
2023-01-31T09:34:36.884Z,9.59
2023-01-31T09:37:03.322Z,10.10
2023-01-31T09:39:29.763Z,10.26
2023-01-31T09:41:56.142Z,10.05
2023-01-31T09:44:22.438Z,9.87
2023-01-31T09:46:48.781Z,9.88
2023-01-31T09:49:15.117Z,9.37
2023-01-31T09:51:41.424Z,9.17
2023-01-31T09:54:07.706Z,9.97
2023-01-31T09:56:34.005Z,10.04
2023-01-31T09:59:00.294Z,9.89
2023-01-31T10:01:26.595Z,10.05
2023-01-31T10:03:53.020Z,10.00
2023-01-31T10:06:19.314Z,10.18
2023-01-31T10:08:45.600Z,10.62
2023-01-31T10:11:12.681Z,11.08
2023-01-31T10:13:39.099Z,11.02
2023-01-31T10:16:05.401Z,11.76
2023-01-31T10:18:31.711Z,11.80
2023-01-31T10:20:57.994Z,11.49
2023-01-31T10:23:24.278Z,11.36
2023-01-31T10:25:50.591Z,11.16
2023-01-31T10:28:16.989Z,11.07
2023-01-31T10:30:43.304Z,11.50
2023-01-31T10:33:09.641Z,10.85
2023-01-31T10:35:35.928Z,11.23
2023-01-31T10:38:02.224Z,10.66
2023-01-31T10:40:28.972Z,10.98
2023-01-31T10:42:55.276Z,10.98
2023-01-31T10:45:21.990Z,10.93
2023-01-31T10:47:48.718Z,10.73
2023-01-31T10:50:15.011Z,10.19
2023-01-31T10:52:41.296Z,9.95
2023-01-31T10:55:07.618Z,9.76
2023-01-31T10:57:33.901Z,10.05
2023-01-31T11:00:00.237Z,9.89
2023-01-31T11:02:26.582Z,9.96
2023-01-31T11:04:52.883Z,9.67
2023-01-31T11:07:19.173Z,9.39
2023-01-31T11:09:45.478Z,9.80
2023-01-31T11:12:11.792Z,9.82
2023-01-31T11:14:38.078Z,10.00
2023-01-31T11:17:04.379Z,8.08
2023-01-31T11:19:30.681Z,6.29
2023-01-31T11:21:56.974Z,4.89
2023-01-31T11:24:23.281Z,4.19
2023-01-31T11:26:49.572Z,5.36
2023-01-31T11:29:15.873Z,7.51
2023-01-31T11:31:42.239Z,8.12
2023-01-31T11:34:08.577Z,7.08
2023-01-31T11:36:34.867Z,6.78
2023-01-31T11:39:01.198Z,5.72
2023-01-31T11:41:27.482Z,5.07
2023-01-31T11:43:53.780Z,4.77
2023-01-31T11:46:20.101Z,4.14
2023-01-31T11:48:46.403Z,3.60
2023-01-31T11:51:12.679Z,3.79
2023-01-31T11:53:39.051Z,3.92
2023-01-31T11:56:05.357Z,3.95
2023-01-31T11:58:31.784Z,4.31
2023-01-31T12:00:58.087Z,4.68
2023-01-31T12:03:24.428Z,4.98
2023-01-31T12:05:50.772Z,4.92
2023-01-31T12:08:17.107Z,4.96
2023-01-31T12:10:43.391Z,5.03
2023-01-31T12:13:18.532Z,4.71
2023-01-31T12:15:45.611Z,4.79
2023-01-31T12:18:11.905Z,4.81
2023-01-31T12:20:38.202Z,5.41
2023-01-31T12:23:04.522Z,5.66
2023-01-31T12:25:30.810Z,5.93
2023-01-31T12:27:57.105Z,5.48
2023-01-31T12:30:23.493Z,5.35
2023-01-31T12:32:49.820Z,5.57
2023-01-31T12:35:16.114Z,5.22
2023-01-31T12:37:42.429Z,5.41
2023-01-31T12:40:23.788Z,5.31
2023-01-31T12:42:50.781Z,5.43
2023-01-31T12:45:17.263Z,5.58
2023-01-31T12:47:43.651Z,5.57
2023-01-31T12:50:11.832Z,5.29
2023-01-31T12:52:38.135Z,5.53
2023-01-31T12:55:04.423Z,5.90
2023-01-31T12:57:30.798Z,5.68
2023-01-31T12:59:57.097Z,5.67
2023-01-31T13:02:23.460Z,5.78
2023-01-31T13:04:49.774Z,5.79
2023-01-31T13:07:16.069Z,5.99
2023-01-31T13:09:42.355Z,6.50
2023-01-31T13:12:08.666Z,6.49
2023-01-31T13:14:34.949Z,5.76
2023-01-31T13:17:01.268Z,5.50
2023-01-31T13:19:27.589Z,5.92
2023-01-31T13:21:53.876Z,6.79
2023-01-31T13:24:20.157Z,6.58
2023-01-31T13:26:46.493Z,7.34
2023-01-31T13:29:12.864Z,7.94
2023-01-31T13:31:39.276Z,7.33
2023-01-31T13:34:05.645Z,6.11
2023-01-31T13:36:31.955Z,5.04
2023-01-31T13:38:58.264Z,5.72
2023-01-31T13:41:24.583Z,5.56
2023-01-31T13:43:50.879Z,5.55
2023-01-31T13:46:18.295Z,5.11
2023-01-31T13:48:44.589Z,5.14
2023-01-31T13:51:10.897Z,5.67
2023-01-31T13:53:37.183Z,5.40
2023-01-31T13:56:03.496Z,4.64
2023-01-31T13:58:29.783Z,4.23
2023-01-31T14:00:56.065Z,4.34
2023-01-31T14:03:22.420Z,4.05
2023-01-31T14:05:48.713Z,3.90
2023-01-31T14:08:15.000Z,4.54
2023-01-31T14:10:41.308Z,4.57
2023-01-31T14:13:07.588Z,4.80
2023-01-31T14:15:33.879Z,5.44
2023-01-31T14:18:00.173Z,5.12
2023-01-31T14:20:26.455Z,4.51
2023-01-31T14:22:52.739Z,4.08
2023-01-31T14:25:19.363Z,4.80
2023-01-31T14:27:45.930Z,4.62
2023-01-31T14:30:12.212Z,4.65
2023-01-31T14:32:38.514Z,4.38
2023-01-31T14:35:04.796Z,4.68
2023-01-31T14:37:31.099Z,4.32
2023-01-31T14:39:57.390Z,4.34
2023-01-31T14:42:23.679Z,5.91
2023-01-31T14:44:49.965Z,5.58
2023-01-31T14:47:16.285Z,5.11
2023-01-31T14:49:42.576Z,5.06
2023-01-31T14:52:08.865Z,4.50
2023-01-31T14:54:35.177Z,4.32
2023-01-31T14:57:01.468Z,4.37
2023-01-31T14:59:27.763Z,4.47
2023-01-31T15:01:54.075Z,3.98
2023-01-31T15:04:20.363Z,4.55
2023-01-31T15:06:46.645Z,4.62
2023-01-31T15:09:12.980Z,4.50
2023-01-31T15:11:42.375Z,4.24
2023-01-31T15:14:09.250Z,4.94
2023-01-31T15:16:35.599Z,5.19
2023-01-31T15:19:01.915Z,4.37
2023-01-31T15:21:28.224Z,3.82
2023-01-31T15:23:54.533Z,4.11
2023-01-31T15:26:20.844Z,3.94
2023-01-31T15:28:47.156Z,3.70
2023-01-31T15:31:13.466Z,3.86
2023-01-31T15:33:39.772Z,3.70
2023-01-31T15:36:06.081Z,3.45
2023-01-31T15:38:32.477Z,4.08
2023-01-31T15:40:58.758Z,4.74
2023-01-31T15:43:25.052Z,6.34
2023-01-31T15:45:51.546Z,7.13
2023-01-31T15:48:18.089Z,6.85
2023-01-31T15:50:44.383Z,6.78
2023-01-31T15:53:10.687Z,7.13
2023-01-31T15:55:36.974Z,6.38
2023-01-31T15:58:03.269Z,5.87
2023-01-31T16:00:29.591Z,5.64
2023-01-31T16:02:55.864Z,5.37
2023-01-31T16:05:22.564Z,5.59
2023-01-31T16:07:49.163Z,5.78
2023-01-31T16:10:15.456Z,5.76
2023-01-31T16:12:41.743Z,6.05
2023-01-31T16:15:08.091Z,6.11
2023-01-31T16:17:34.360Z,6.26
2023-01-31T16:20:00.705Z,6.55
2023-01-31T16:22:27.056Z,6.41
2023-01-31T16:24:53.348Z,6.47
2023-01-31T16:27:19.650Z,6.67
2023-01-31T16:29:45.945Z,7.01
2023-01-31T16:32:12.233Z,6.77
2023-01-31T16:34:38.517Z,6.89
2023-01-31T16:37:04.842Z,6.91
2023-01-31T16:39:31.132Z,6.58
2023-01-31T16:41:58.241Z,5.75
2023-01-31T16:44:24.645Z,5.94
2023-01-31T16:46:50.938Z,6.47
2023-01-31T16:49:17.226Z,6.73
2023-01-31T16:51:43.517Z,7.41
2023-01-31T16:54:09.816Z,10.94
2023-01-31T16:56:36.110Z,13.11
2023-01-31T16:59:02.413Z,10.59
2023-01-31T17:01:28.769Z,8.21
2023-01-31T17:03:55.086Z,7.66
2023-01-31T17:06:21.394Z,8.35
2023-01-31T17:08:47.706Z,8.11
2023-01-31T17:11:23.591Z,7.38
2023-01-31T17:13:55.470Z,8.21
2023-01-31T17:16:21.761Z,9.15
2023-01-31T17:18:48.077Z,7.95
2023-01-31T17:21:15.740Z,12.98
2023-01-31T17:23:42.081Z,16.31
2023-01-31T17:26:08.388Z,13.11
2023-01-31T17:28:34.707Z,7.43
2023-01-31T17:31:01.073Z,7.24
2023-01-31T17:33:27.409Z,7.20
2023-01-31T17:35:53.736Z,9.03
2023-01-31T17:38:20.031Z,10.20
2023-01-31T17:40:46.402Z,9.10
2023-01-31T17:43:12.751Z,8.56
2023-01-31T17:45:39.047Z,8.71
2023-01-31T17:48:06.165Z,7.16
2023-01-31T17:50:33.987Z,6.30
2023-01-31T17:53:00.290Z,6.49
2023-01-31T17:55:26.575Z,8.06
2023-01-31T17:57:52.878Z,11.36
2023-01-31T18:00:19.202Z,14.00
2023-01-31T18:02:45.608Z,12.62
2023-01-31T18:05:11.944Z,10.93
2023-01-31T18:07:38.228Z,9.53
2023-01-31T18:10:04.537Z,7.48
2023-01-31T18:12:30.835Z,7.09
2023-01-31T18:14:57.122Z,8.98
2023-01-31T18:17:23.421Z,10.24
2023-01-31T18:19:49.728Z,9.02
2023-01-31T18:22:16.025Z,12.08
2023-01-31T18:24:42.318Z,9.22
2023-01-31T18:27:08.662Z,8.21
2023-01-31T18:29:34.935Z,7.67
2023-01-31T18:32:01.305Z,7.51
2023-01-31T18:34:27.699Z,8.85
2023-01-31T18:36:53.989Z,10.52
2023-01-31T18:39:20.296Z,9.21
2023-01-31T18:41:46.646Z,7.91
2023-01-31T18:44:12.933Z,8.70
2023-01-31T18:46:39.397Z,8.39
2023-01-31T18:49:05.733Z,7.41
2023-01-31T18:51:32.021Z,7.26
2023-01-31T18:53:58.309Z,6.48
2023-01-31T18:56:24.615Z,7.32
2023-01-31T18:58:50.911Z,10.27
2023-01-31T19:01:17.219Z,13.72
2023-01-31T19:03:43.586Z,9.66
2023-01-31T19:06:09.864Z,6.97
2023-01-31T19:08:36.150Z,7.35
2023-01-31T19:11:02.439Z,7.52
2023-01-31T19:13:28.723Z,8.49
2023-01-31T19:15:55.033Z,6.94
2023-01-31T19:18:21.357Z,6.81
2023-01-31T19:20:47.643Z,6.08
2023-01-31T19:23:13.930Z,5.11
2023-01-31T19:25:40.237Z,4.71
2023-01-31T19:28:06.520Z,5.13
2023-01-31T19:30:32.823Z,5.60
2023-01-31T19:32:59.160Z,5.05
2023-01-31T19:35:25.457Z,4.98
2023-01-31T19:37:51.757Z,4.74
2023-01-31T19:40:18.067Z,5.42
2023-01-31T19:42:44.344Z,5.68
2023-01-31T19:45:10.631Z,6.10
2023-01-31T19:47:36.937Z,7.04
2023-01-31T19:50:03.225Z,7.50
2023-01-31T19:52:29.513Z,8.04
2023-01-31T19:54:55.838Z,10.29
2023-01-31T19:57:22.124Z,10.71
2023-01-31T19:59:48.405Z,10.41
2023-01-31T20:02:14.807Z,9.44
2023-01-31T20:04:41.157Z,10.10
2023-01-31T20:07:07.453Z,10.07
2023-01-31T20:09:33.744Z,9.03
2023-01-31T20:12:00.019Z,9.21
2023-01-31T20:14:26.300Z,10.12
2023-01-31T20:16:52.620Z,9.55
2023-01-31T20:19:20.493Z,8.89
2023-01-31T20:21:46.879Z,8.15
2023-01-31T20:24:13.184Z,9.12
2023-01-31T20:26:39.498Z,8.92
2023-01-31T20:29:05.826Z,11.28
2023-01-31T20:31:32.215Z,11.30
2023-01-31T20:33:58.529Z,8.97
2023-01-31T20:36:24.810Z,7.26
2023-01-31T20:38:51.140Z,6.84
2023-01-31T20:41:17.424Z,7.14
2023-01-31T20:43:43.704Z,7.05
2023-01-31T20:46:10.127Z,7.69
2023-01-31T20:48:36.473Z,7.80
2023-01-31T20:51:02.790Z,7.27
2023-01-31T20:53:29.092Z,6.95
2023-01-31T20:55:55.370Z,7.04
2023-01-31T20:58:21.653Z,8.97
2023-01-31T21:00:47.959Z,15.39
2023-01-31T21:03:14.327Z,13.32
2023-01-31T21:05:40.639Z,11.54
2023-01-31T21:08:06.954Z,8.88
2023-01-31T21:10:33.241Z,7.42
2023-01-31T21:12:59.527Z,6.74
2023-01-31T21:15:27.828Z,6.79
2023-01-31T21:17:54.934Z,6.79
2023-01-31T21:20:21.419Z,6.93
2023-01-31T21:22:47.889Z,6.68
2023-01-31T21:25:14.177Z,6.75
2023-01-31T21:27:40.493Z,6.65
2023-01-31T21:30:06.816Z,7.45
2023-01-31T21:32:33.102Z,7.48
2023-01-31T21:34:59.391Z,6.46
2023-01-31T21:37:25.692Z,6.44
2023-01-31T21:39:51.972Z,7.31
2023-01-31T21:42:18.272Z,6.80
2023-01-31T21:44:44.625Z,6.46
2023-01-31T21:47:11.041Z,6.18
2023-01-31T21:49:37.317Z,6.49
2023-01-31T21:52:03.620Z,6.62
2023-01-31T21:54:29.917Z,6.71
2023-01-31T21:56:56.218Z,6.80
2023-01-31T21:59:22.513Z,6.62
2023-01-31T22:01:48.814Z,6.85
2023-01-31T22:04:15.147Z,6.81
2023-01-31T22:06:41.449Z,7.04
2023-01-31T22:09:07.738Z,7.10
2023-01-31T22:11:34.015Z,6.26
2023-01-31T22:14:00.324Z,6.46
2023-01-31T22:16:26.625Z,6.40
2023-01-31T22:18:52.969Z,6.11
2023-01-31T22:21:19.289Z,6.34
2023-01-31T22:23:45.600Z,5.79
2023-01-31T22:26:11.876Z,6.07
2023-01-31T22:28:38.184Z,6.30
2023-01-31T22:31:04.546Z,6.01
2023-01-31T22:33:30.900Z,6.02
2023-01-31T22:35:57.230Z,6.29
2023-01-31T22:38:26.373Z,6.28
2023-01-31T22:40:52.649Z,6.33
2023-01-31T22:43:18.947Z,6.28
2023-01-31T22:45:45.234Z,6.37
2023-01-31T22:48:11.525Z,7.10
2023-01-31T22:50:37.879Z,6.57
2023-01-31T22:53:04.199Z,6.37
2023-01-31T22:55:30.492Z,6.50
2023-01-31T22:57:56.850Z,6.76
2023-01-31T23:00:23.356Z,6.85
2023-01-31T23:02:49.799Z,6.89
2023-01-31T23:05:16.102Z,7.25
2023-01-31T23:07:42.384Z,7.38
2023-01-31T23:10:08.673Z,7.94
2023-01-31T23:12:34.993Z,8.46
2023-01-31T23:15:01.283Z,9.00
2023-01-31T23:17:27.593Z,9.39
2023-01-31T23:19:53.886Z,8.96
2023-01-31T23:22:20.161Z,8.44
2023-01-31T23:24:46.449Z,8.65
2023-01-31T23:27:12.743Z,8.12
2023-01-31T23:29:39.035Z,7.94
2023-01-31T23:32:05.317Z,7.98
2023-01-31T23:34:31.624Z,8.03
2023-01-31T23:36:58.052Z,8.01
2023-01-31T23:39:24.345Z,8.35
2023-01-31T23:41:50.653Z,8.65
2023-01-31T23:44:16.940Z,8.20
2023-01-31T23:46:49.056Z,7.86
2023-01-31T23:49:15.352Z,7.49
2023-01-31T23:51:41.637Z,8.00
2023-01-31T23:54:07.933Z,8.36
2023-01-31T23:56:34.284Z,8.20
2023-01-31T23:59:00.560Z,8.13
